createdAt,value
2022-11-05T00:01:42.166Z,9.60
2022-11-05T00:04:46.617Z,9.60
2022-11-05T00:07:54.525Z,9.60
2022-11-05T00:10:43.030Z,9.60
2022-11-05T00:13:59.200Z,9.60
2022-11-05T00:16:46.150Z,9.60
2022-11-05T00:19:33.365Z,9.50
2022-11-05T00:22:38.137Z,9.50
2022-11-05T00:25:25.178Z,9.50
2022-11-05T00:28:13.689Z,9.50
2022-11-05T00:31:02.914Z,9.50
2022-11-05T00:33:50.445Z,9.50
2022-11-05T00:36:37.645Z,9.40
2022-11-05T00:39:24.820Z,9.40
2022-11-05T00:42:29.426Z,9.40
2022-11-05T00:45:18.106Z,9.40
2022-11-05T00:48:22.977Z,9.40
2022-11-05T00:51:10.090Z,9.40
2022-11-05T00:53:57.298Z,9.40
2022-11-05T00:56:44.352Z,9.40
2022-11-05T00:59:31.190Z,9.40
2022-11-05T01:02:19.882Z,9.40
2022-11-05T01:05:07.856Z,9.40
2022-11-05T01:07:54.944Z,9.40
2022-11-05T01:10:42.581Z,9.40
2022-11-05T01:13:31.380Z,9.40
2022-11-05T01:16:18.860Z,9.50
2022-11-05T01:19:08.999Z,9.40
2022-11-05T01:21:56.139Z,9.50
2022-11-05T01:24:43.346Z,9.50
2022-11-05T01:27:30.802Z,9.40
2022-11-05T01:30:18.393Z,9.50
2022-11-05T01:33:05.604Z,9.40
2022-11-05T01:35:53.601Z,9.40
2022-11-05T01:38:40.807Z,9.40
2022-11-05T01:41:28.142Z,9.40
2022-11-05T01:45:03.468Z,9.40
2022-11-05T01:48:04.989Z,9.40
2022-11-05T01:50:57.660Z,9.40
2022-11-05T01:53:48.688Z,9.50
2022-11-05T01:56:38.783Z,9.40
2022-11-05T01:59:31.161Z,9.40
2022-11-05T02:02:19.759Z,9.30
2022-11-05T02:05:08.696Z,9.30
2022-11-05T02:07:57.551Z,9.30
2022-11-05T02:10:46.633Z,9.30
2022-11-05T02:13:34.193Z,9.30
2022-11-05T02:16:37.605Z,9.30
2022-11-05T02:20:00.877Z,9.30
2022-11-05T02:23:24.595Z,9.30
2022-11-05T02:26:54.363Z,9.30
2022-11-05T02:30:13.149Z,9.20
2022-11-05T02:33:15.372Z,9.20
2022-11-05T02:36:15.413Z,9.20
2022-11-05T02:39:12.663Z,9.20
2022-11-05T02:42:09.185Z,9.10
2022-11-05T02:45:03.901Z,9.00
2022-11-05T02:47:57.200Z,9.00
2022-11-05T02:50:55.242Z,9.10
2022-11-05T02:53:47.614Z,9.00
2022-11-05T02:56:39.011Z,9.00
2022-11-05T02:59:26.151Z,9.10
2022-11-05T03:02:13.755Z,9.00
2022-11-05T03:05:02.001Z,8.90
2022-11-05T03:07:57.215Z,9.00
2022-11-05T03:10:50.297Z,9.00
2022-11-05T03:13:44.701Z,8.90
2022-11-05T03:16:42.089Z,8.80
2022-11-05T03:19:37.867Z,8.90
2022-11-05T03:22:29.517Z,8.90
2022-11-05T03:25:22.660Z,8.80
2022-11-05T03:28:11.956Z,8.80
2022-11-05T03:30:59.969Z,8.80
2022-11-05T03:33:49.139Z,8.80
2022-11-05T03:36:41.248Z,8.80
2022-11-05T03:39:32.984Z,8.80
2022-11-05T03:42:26.709Z,8.90
2022-11-05T03:45:19.449Z,8.80
2022-11-05T03:48:10.411Z,8.80
2022-11-05T03:51:02.104Z,8.80
2022-11-05T03:53:52.754Z,8.80
2022-11-05T03:56:47.163Z,8.80
2022-11-05T03:59:41.984Z,8.90
2022-11-05T04:02:29.906Z,8.90
2022-11-05T04:05:17.140Z,8.80
2022-11-05T04:08:21.700Z,8.70
2022-11-05T04:11:27.033Z,8.70
2022-11-05T04:14:14.135Z,8.70
2022-11-05T04:17:09.445Z,8.70
2022-11-05T04:20:14.258Z,8.70
2022-11-05T04:23:20.096Z,8.70
2022-11-05T04:26:07.180Z,8.60
2022-11-05T04:29:11.910Z,8.60
2022-11-05T04:31:58.941Z,8.60
2022-11-05T04:34:47.604Z,8.60
2022-11-05T04:37:34.586Z,8.60
2022-11-05T04:40:21.836Z,8.60
2022-11-05T04:43:14.948Z,8.50
2022-11-05T04:46:02.535Z,8.50
2022-11-05T04:48:49.781Z,8.50
2022-11-05T04:51:38.384Z,8.50
2022-11-05T04:54:25.538Z,8.50
2022-11-05T04:57:13.014Z,8.50
2022-11-05T05:00:41.328Z,8.50
2022-11-05T05:03:28.019Z,8.50
2022-11-05T05:06:15.391Z,8.50
2022-11-05T05:09:03.779Z,8.50
2022-11-05T05:11:51.037Z,8.40
2022-11-05T05:14:37.982Z,8.30
2022-11-05T05:17:25.823Z,8.40
2022-11-05T05:20:30.356Z,8.40
2022-11-05T05:23:17.339Z,8.50
2022-11-05T05:26:06.154Z,8.40
2022-11-05T05:28:53.943Z,8.40
2022-11-05T05:31:41.414Z,8.40
2022-11-05T05:34:28.799Z,8.40
2022-11-05T05:37:16.183Z,8.30
2022-11-05T05:40:03.657Z,8.30
2022-11-05T05:42:55.863Z,8.30
2022-11-05T05:45:43.149Z,8.40
2022-11-05T05:48:30.156Z,8.30
2022-11-05T05:51:17.496Z,8.30
2022-11-05T05:54:04.982Z,8.30
2022-11-05T05:56:52.040Z,8.30
2022-11-05T05:59:40.695Z,8.30
2022-11-05T06:02:28.206Z,8.30
2022-11-05T06:05:15.482Z,8.30
2022-11-05T06:08:02.747Z,8.30
2022-11-05T06:10:52.175Z,8.20
2022-11-05T06:13:39.310Z,8.20
2022-11-05T06:16:28.507Z,8.10
2022-11-05T06:19:15.657Z,8.10
2022-11-05T06:22:02.981Z,8.20
2022-11-05T06:24:49.992Z,8.20
2022-11-05T06:27:37.732Z,8.20
2022-11-05T06:30:24.670Z,8.20
2022-11-05T06:33:13.640Z,8.20
2022-11-05T06:36:01.375Z,8.20
2022-11-05T06:38:48.545Z,8.10
2022-11-05T06:41:56.964Z,8.10
2022-11-05T06:44:42.542Z,8.00
2022-11-05T06:47:30.018Z,8.10
2022-11-05T06:50:18.506Z,8.10
2022-11-05T06:53:06.129Z,8.10
2022-11-05T06:55:53.228Z,8.10
2022-11-05T06:58:40.344Z,8.10
2022-11-05T07:01:27.736Z,8.10
2022-11-05T07:04:15.084Z,8.10
2022-11-05T07:07:03.573Z,8.10
2022-11-05T07:09:53.173Z,8.10
2022-11-05T07:12:40.072Z,8.10
2022-11-05T07:15:27.533Z,8.10
2022-11-05T07:18:14.932Z,8.00
2022-11-05T07:21:02.628Z,8.10
2022-11-05T07:23:51.221Z,8.10
2022-11-05T07:26:38.416Z,8.10
2022-11-05T07:29:25.145Z,8.10
2022-11-05T07:32:12.206Z,8.10
2022-11-05T07:34:59.023Z,8.20
2022-11-05T07:37:47.591Z,8.20
2022-11-05T07:40:35.917Z,8.10
2022-11-05T07:43:23.176Z,8.10
2022-11-05T07:46:13.660Z,8.20
2022-11-05T07:49:00.769Z,8.10
2022-11-05T07:51:48.150Z,8.10
2022-11-05T07:54:35.352Z,8.20
2022-11-05T07:57:24.026Z,8.30
2022-11-05T08:00:14.050Z,8.40
2022-11-05T08:03:07.642Z,8.40
2022-11-05T08:05:55.478Z,8.50
2022-11-05T08:08:42.388Z,8.50
2022-11-05T08:11:29.652Z,8.50
2022-11-05T08:14:18.096Z,8.40
2022-11-05T08:17:05.629Z,8.50
2022-11-05T08:19:52.801Z,8.70
2022-11-05T08:22:43.404Z,9.00
2022-11-05T08:25:30.869Z,9.10
2022-11-05T08:28:17.990Z,9.40
2022-11-05T08:31:06.746Z,9.50
2022-11-05T08:33:57.150Z,9.40
2022-11-05T08:36:47.181Z,9.50
2022-11-05T08:39:34.230Z,9.40
2022-11-05T08:42:21.495Z,9.40
2022-11-05T08:45:09.965Z,9.30
2022-11-05T08:48:01.319Z,9.40
2022-11-05T08:50:49.941Z,9.30
2022-11-05T08:53:37.193Z,9.40
2022-11-05T08:56:24.569Z,9.50
2022-11-05T08:59:11.814Z,9.60
2022-11-05T09:01:59.200Z,9.80
2022-11-05T09:04:47.715Z,10.00
2022-11-05T09:07:35.014Z,10.40
2022-11-05T09:10:21.941Z,10.80
2022-11-05T09:13:13.227Z,10.90
2022-11-05T09:16:04.009Z,10.80
2022-11-05T09:18:51.451Z,11.20
2022-11-05T09:21:39.927Z,11.00
2022-11-05T09:24:27.103Z,11.60
2022-11-05T09:27:14.676Z,11.30
2022-11-05T09:30:01.642Z,11.90
2022-11-05T09:32:49.221Z,12.20
2022-11-05T09:35:38.331Z,12.30
2022-11-05T09:38:26.986Z,12.40
2022-11-05T09:41:21.804Z,12.70
2022-11-05T09:44:14.595Z,12.60
2022-11-05T09:47:05.768Z,12.70
2022-11-05T09:49:55.628Z,12.70
2022-11-05T09:52:42.666Z,12.60
2022-11-05T09:55:35.753Z,12.60
2022-11-05T09:58:29.115Z,12.70
2022-11-05T10:01:20.170Z,12.30
2022-11-05T10:04:10.395Z,12.60
2022-11-05T10:07:01.858Z,12.10
2022-11-05T10:09:54.158Z,11.70
2022-11-05T10:12:46.635Z,11.80
2022-11-05T10:15:39.033Z,11.70
2022-11-05T10:18:31.464Z,11.90
2022-11-05T10:21:37.768Z,11.60
2022-11-05T10:24:28.679Z,11.30
2022-11-05T10:27:19.485Z,11.60
2022-11-05T10:30:11.132Z,11.90
2022-11-05T10:33:01.428Z,11.90
2022-11-05T10:35:52.116Z,11.90
2022-11-05T10:38:39.079Z,11.80
2022-11-05T10:41:43.298Z,12.00
2022-11-05T10:44:37.381Z,11.60
2022-11-05T10:47:40.725Z,11.90
2022-11-05T10:50:29.877Z,11.60
2022-11-05T10:53:20.284Z,11.80
2022-11-05T10:56:29.591Z,12.00
2022-11-05T10:59:24.586Z,12.00
2022-11-05T11:02:21.228Z,11.80
2022-11-05T11:05:11.647Z,11.90
2022-11-05T11:08:02.943Z,12.00
2022-11-05T11:10:52.128Z,12.20
2022-11-05T11:13:52.102Z,12.10
2022-11-05T11:16:41.320Z,12.20
2022-11-05T11:19:30.902Z,12.00
2022-11-05T11:22:22.145Z,11.80
2022-11-05T11:25:24.911Z,12.00
2022-11-05T11:28:19.032Z,12.20
2022-11-05T11:31:08.847Z,12.20
2022-11-05T11:34:01.437Z,12.00
2022-11-05T11:36:51.597Z,12.20
2022-11-05T11:39:40.573Z,12.20
2022-11-05T11:42:32.069Z,12.30
2022-11-05T11:45:21.944Z,12.50
2022-11-05T11:48:16.635Z,12.70
2022-11-05T11:51:30.128Z,12.70
2022-11-05T11:54:21.441Z,12.50
2022-11-05T11:57:23.555Z,12.60
2022-11-05T12:00:11.366Z,12.70
2022-11-05T12:03:13.789Z,13.00
2022-11-05T12:06:08.288Z,13.00
2022-11-05T12:09:07.300Z,13.10
2022-11-05T12:12:01.284Z,12.90
2022-11-05T12:14:56.333Z,12.70
2022-11-05T12:17:50.747Z,12.60
2022-11-05T12:21:05.834Z,12.50
2022-11-05T12:24:25.058Z,12.50
2022-11-05T12:27:24.397Z,12.60
2022-11-05T12:30:16.172Z,12.60
2022-11-05T12:33:20.906Z,12.50
2022-11-05T12:36:18.037Z,12.50
2022-11-05T12:39:30.923Z,12.50
2022-11-05T12:42:32.052Z,12.70
2022-11-05T12:45:30.697Z,12.70
2022-11-05T12:48:37.407Z,12.40
2022-11-05T12:51:50.334Z,12.50
2022-11-05T12:54:50.063Z,12.20
2022-11-05T12:57:41.899Z,12.20
2022-11-05T13:00:32.031Z,12.40
2022-11-05T13:03:28.279Z,12.30
2022-11-05T13:06:17.992Z,12.20
2022-11-05T13:09:09.980Z,12.10
2022-11-05T13:12:00.521Z,12.10
2022-11-05T13:14:53.179Z,12.40
2022-11-05T13:17:49.279Z,12.30
2022-11-05T13:20:40.524Z,12.40
2022-11-05T13:23:33.377Z,12.60
2022-11-05T13:26:27.791Z,12.80
2022-11-05T13:29:18.908Z,12.70
2022-11-05T13:32:28.921Z,12.60
2022-11-05T13:35:22.245Z,12.40
2022-11-05T13:38:33.703Z,12.50
2022-11-05T13:41:32.503Z,12.40
2022-11-05T13:44:52.802Z,12.30
2022-11-05T13:48:00.318Z,12.30
2022-11-05T13:51:17.003Z,12.10
2022-11-05T13:54:41.840Z,12.20
2022-11-05T13:58:01.521Z,12.20
2022-11-05T14:01:02.823Z,12.40
2022-11-05T14:03:52.143Z,12.40
2022-11-05T14:06:40.397Z,12.20
2022-11-05T14:09:28.183Z,12.10
2022-11-05T14:12:24.293Z,12.10
2022-11-05T14:15:21.059Z,12.00
2022-11-05T14:18:36.742Z,12.00
2022-11-05T14:24:41.416Z,12.00
2022-11-05T14:27:44.458Z,11.90
2022-11-05T14:30:45.023Z,11.80
2022-11-05T14:33:36.269Z,11.70
2022-11-05T14:36:37.499Z,11.70
2022-11-05T14:39:28.968Z,11.60
2022-11-05T14:42:21.164Z,11.70
2022-11-05T14:45:27.775Z,11.70
2022-11-05T14:48:32.010Z,11.70
2022-11-05T14:51:28.896Z,11.50
2022-11-05T14:54:22.661Z,11.50
2022-11-05T14:57:14.607Z,11.60
2022-11-05T15:00:01.917Z,11.50
2022-11-05T15:02:57.889Z,11.40
2022-11-05T15:05:52.148Z,11.30
2022-11-05T15:08:56.868Z,11.40
2022-11-05T15:11:51.012Z,11.30
2022-11-05T15:14:48.068Z,11.20
2022-11-05T15:17:39.793Z,11.10
2022-11-05T15:20:39.791Z,11.10
2022-11-05T15:23:37.259Z,11.00
2022-11-05T15:26:31.195Z,11.00
2022-11-05T15:29:22.083Z,10.80
2022-11-05T15:32:17.721Z,10.70
2022-11-05T15:35:24.634Z,10.60
2022-11-05T15:38:28.021Z,10.50
2022-11-05T15:41:18.097Z,10.30
2022-11-05T15:44:05.554Z,10.10
2022-11-05T15:47:06.815Z,10.00
2022-11-05T15:49:57.000Z,9.90
2022-11-05T15:52:50.666Z,9.80
2022-11-05T15:55:48.011Z,9.80
2022-11-05T15:58:35.478Z,9.70
2022-11-05T16:01:24.831Z,9.50
2022-11-05T16:04:17.012Z,9.40
2022-11-05T16:07:11.857Z,9.30
2022-11-05T16:10:00.724Z,9.20
2022-11-05T16:12:47.869Z,9.20
2022-11-05T16:15:35.185Z,9.10
2022-11-05T16:18:23.909Z,9.10
2022-11-05T16:21:12.891Z,9.10
2022-11-05T16:24:01.917Z,9.00
2022-11-05T16:27:03.735Z,8.80
2022-11-05T16:29:53.016Z,8.80
2022-11-05T16:32:39.828Z,8.80
2022-11-05T16:35:27.265Z,8.60
2022-11-05T16:38:14.904Z,8.70
2022-11-05T16:41:03.382Z,8.70
2022-11-05T16:43:55.648Z,8.60
2022-11-05T16:46:44.800Z,8.50
2022-11-05T16:49:32.065Z,8.20
2022-11-05T16:52:19.471Z,8.20
2022-11-05T16:55:07.062Z,8.10
2022-11-05T16:57:56.607Z,8.10
2022-11-05T17:00:43.685Z,8.20
2022-11-05T17:03:30.826Z,8.20
2022-11-05T17:06:19.278Z,8.10
2022-11-05T17:09:06.494Z,8.20
2022-11-05T17:11:53.817Z,8.10
2022-11-05T17:14:42.699Z,8.10
2022-11-05T17:17:29.952Z,8.20
2022-11-05T17:20:27.417Z,8.30
2022-11-05T17:23:16.712Z,8.30
2022-11-05T17:26:06.816Z,8.40
2022-11-05T17:28:53.908Z,8.40
2022-11-05T17:31:42.951Z,8.30
2022-11-05T17:34:30.022Z,8.30
2022-11-05T17:37:17.113Z,8.10
2022-11-05T17:40:06.456Z,8.20
2022-11-05T17:42:53.713Z,8.10
2022-11-05T17:45:45.180Z,8.10
2022-11-05T17:48:33.821Z,8.00
2022-11-05T17:51:21.274Z,8.00
2022-11-05T17:54:08.401Z,8.00
2022-11-05T17:56:55.483Z,7.90
2022-11-05T17:59:42.965Z,7.90
2022-11-05T18:02:30.478Z,7.80
2022-11-05T18:05:19.929Z,7.80
2022-11-05T18:08:07.970Z,7.80
2022-11-05T18:10:55.341Z,7.80
2022-11-05T18:13:42.747Z,7.80
2022-11-05T18:16:30.022Z,7.80
2022-11-05T18:19:18.345Z,7.70
2022-11-05T18:22:07.217Z,7.70
2022-11-05T18:24:54.893Z,7.60
2022-11-05T18:27:42.836Z,7.60
2022-11-05T18:30:30.300Z,7.40
2022-11-05T18:33:18.115Z,7.40
2022-11-05T18:36:06.093Z,7.30
2022-11-05T18:38:55.406Z,7.30
2022-11-05T18:41:43.019Z,7.40
2022-11-05T18:44:33.730Z,7.30
2022-11-05T18:47:25.042Z,7.20
2022-11-05T18:50:14.068Z,7.10
2022-11-05T18:53:02.550Z,7.10
2022-11-05T18:55:52.570Z,7.10
2022-11-05T18:58:41.299Z,7.00
2022-11-05T19:01:32.271Z,7.00
2022-11-05T19:04:22.026Z,7.00
2022-11-05T19:07:23.766Z,7.00
2022-11-05T19:10:11.797Z,7.00
2022-11-05T19:13:04.310Z,7.10
2022-11-05T19:15:53.053Z,6.90
2022-11-05T19:18:44.493Z,6.90
2022-11-05T19:21:32.157Z,6.90
2022-11-05T19:24:19.068Z,6.90
2022-11-05T19:27:06.370Z,7.00
2022-11-05T19:29:55.134Z,7.00
2022-11-05T19:32:42.416Z,7.00
2022-11-05T19:35:29.591Z,6.90
2022-11-05T19:38:16.842Z,6.90
2022-11-05T19:41:07.862Z,6.80
2022-11-05T19:43:57.875Z,6.80
2022-11-05T19:46:46.547Z,6.70
2022-11-05T19:49:33.743Z,6.50
2022-11-05T19:52:20.933Z,6.60
2022-11-05T19:55:12.102Z,6.50
2022-11-05T19:57:59.620Z,6.50
2022-11-05T20:00:46.822Z,6.40
2022-11-05T20:03:35.286Z,6.30
2022-11-05T20:06:25.638Z,6.30
2022-11-05T20:09:21.623Z,6.30
2022-11-05T20:12:09.532Z,6.20
2022-11-05T20:14:56.496Z,6.20
2022-11-05T20:17:43.735Z,6.10
2022-11-05T20:20:32.108Z,6.10
2022-11-05T20:23:19.434Z,6.00
2022-11-05T20:26:07.888Z,5.90
2022-11-05T20:28:55.261Z,6.00
2022-11-05T20:31:42.533Z,5.90
2022-11-05T20:34:30.007Z,5.90
2022-11-05T20:37:18.596Z,5.90
2022-11-05T20:40:06.908Z,5.90
2022-11-05T20:42:53.638Z,5.90
2022-11-05T20:45:40.935Z,5.90
2022-11-05T20:48:30.947Z,5.80
2022-11-05T20:51:20.404Z,5.80
2022-11-05T20:54:08.662Z,5.90
2022-11-05T20:56:55.992Z,5.90
2022-11-05T20:59:43.314Z,5.70
2022-11-05T21:02:30.372Z,5.90
2022-11-05T21:05:17.428Z,6.00
2022-11-05T21:08:04.791Z,6.00
2022-11-05T21:10:53.623Z,6.00
2022-11-05T21:13:41.061Z,6.00
2022-11-05T21:16:28.370Z,6.00
2022-11-05T21:19:16.305Z,6.00
2022-11-05T21:22:04.162Z,6.00
2022-11-05T21:24:51.660Z,6.00
2022-11-05T21:27:43.545Z,6.00
2022-11-05T21:30:31.806Z,6.00
2022-11-05T21:33:19.909Z,6.00
2022-11-05T21:36:08.729Z,6.10
2022-11-05T21:38:55.755Z,6.10
2022-11-05T21:41:43.516Z,6.10
2022-11-05T21:44:32.337Z,6.10
2022-11-05T21:47:19.250Z,6.10
2022-11-05T21:50:07.148Z,6.20
2022-11-05T21:53:11.849Z,6.10
2022-11-05T21:56:16.313Z,6.20
2022-11-05T21:59:20.819Z,6.30
2022-11-05T22:02:11.270Z,6.30
2022-11-05T22:04:59.997Z,6.20
2022-11-05T22:07:46.893Z,6.20
2022-11-05T22:10:34.027Z,6.20
2022-11-05T22:13:21.272Z,6.20
2022-11-05T22:16:09.704Z,6.30
2022-11-05T22:18:59.175Z,6.30
2022-11-05T22:21:46.517Z,6.50
2022-11-05T22:24:34.616Z,6.30
2022-11-05T22:27:22.403Z,6.30
2022-11-05T22:30:10.389Z,6.20
2022-11-05T22:32:57.403Z,6.20
2022-11-05T22:35:45.994Z,6.10
2022-11-05T22:38:33.173Z,6.10
2022-11-05T22:41:22.852Z,5.90
2022-11-05T22:44:10.593Z,5.90
2022-11-05T22:46:57.535Z,5.90
2022-11-05T22:49:45.241Z,5.90
2022-11-05T22:52:33.828Z,5.90
2022-11-05T22:55:21.140Z,6.00
2022-11-05T22:58:08.357Z,6.00
2022-11-05T23:00:55.632Z,6.00
2022-11-05T23:03:44.623Z,5.90
2022-11-05T23:07:02.149Z,5.90
2022-11-05T23:10:08.019Z,5.90
2022-11-05T23:12:56.105Z,5.90
2022-11-05T23:16:00.813Z,5.90
2022-11-05T23:19:05.172Z,5.90
2022-11-05T23:22:09.496Z,5.90
2022-11-05T23:24:57.895Z,5.90
2022-11-05T23:27:46.639Z,5.90
2022-11-05T23:30:34.026Z,5.90
2022-11-05T23:33:19.933Z,5.90
2022-11-05T23:36:24.761Z,5.90
2022-11-05T23:39:11.839Z,5.90
2022-11-05T23:42:17.931Z,5.90
2022-11-05T23:45:23.399Z,5.90
2022-11-05T23:48:18.572Z,5.80
2022-11-05T23:51:08.737Z,5.80
2022-11-05T23:53:56.045Z,5.80
2022-11-05T23:56:43.331Z,5.80
2022-11-05T23:59:31.917Z,5.90
